sensor_id;sensor_type;location;lat;lon;timestamp;P1;durP1;ratioP1;P2;durP2;ratioP2
49834;SDS011;35729;52.090;13.162;2023-01-23T00:01:56;44.88;;;24.25;;
49834;SDS011;35729;52.090;13.162;2023-01-23T00:04:25;41.95;;;22.02;;
49834;SDS011;35729;52.090;13.162;2023-01-23T00:06:53;40.60;;;21.75;;
49834;SDS011;35729;52.090;13.162;2023-01-23T00:09:22;40.90;;;21.90;;
49834;SDS011;35729;52.090;13.162;2023-01-23T00:11:50;41.22;;;23.60;;
49834;SDS011;35729;52.090;13.162;2023-01-23T00:14:19;42.58;;;22.83;;
49834;SDS011;35729;52.090;13.162;2023-01-23T00:16:50;41.10;;;22.30;;
49834;SDS011;35729;52.090;13.162;2023-01-23T00:19:19;41.95;;;22.08;;
49834;SDS011;35729;52.090;13.162;2023-01-23T00:21:47;41.58;;;22.10;;
49834;SDS011;35729;52.090;13.162;2023-01-23T00:24:15;40.45;;;23.52;;
49834;SDS011;35729;52.090;13.162;2023-01-23T00:26:50;42.45;;;21.67;;
49834;SDS011;35729;52.090;13.162;2023-01-23T00:29:19;42.03;;;21.63;;
49834;SDS011;35729;52.090;13.162;2023-01-23T00:31:50;42.17;;;22.02;;
49834;SDS011;35729;52.090;13.162;2023-01-23T00:34:18;38.72;;;22.40;;
49834;SDS011;35729;52.090;13.162;2023-01-23T00:36:47;36.60;;;20.88;;
49834;SDS011;35729;52.090;13.162;2023-01-23T00:39:16;41.58;;;21.77;;
49834;SDS011;35729;52.090;13.162;2023-01-23T00:41:47;38.05;;;22.05;;
49834;SDS011;35729;52.090;13.162;2023-01-23T00:44:16;42.47;;;22.35;;
49834;SDS011;35729;52.090;13.162;2023-01-23T00:46:45;39.80;;;21.60;;
49834;SDS011;35729;52.090;13.162;2023-01-23T00:49:16;40.70;;;22.27;;
49834;SDS011;35729;52.090;13.162;2023-01-23T00:51:45;41.65;;;22.02;;
49834;SDS011;35729;52.090;13.162;2023-01-23T00:54:14;40.67;;;22.15;;
49834;SDS011;35729;52.090;13.162;2023-01-23T00:56:44;39.75;;;22.08;;
49834;SDS011;35729;52.090;13.162;2023-01-23T00:59:12;37.88;;;21.50;;
49834;SDS011;35729;52.090;13.162;2023-01-23T01:01:41;43.35;;;21.65;;
49834;SDS011;35729;52.090;13.162;2023-01-23T01:04:09;40.65;;;21.73;;
49834;SDS011;35729;52.090;13.162;2023-01-23T01:06:40;44.20;;;21.60;;
49834;SDS011;35729;52.090;13.162;2023-01-23T01:09:09;40.25;;;20.95;;
49834;SDS011;35729;52.090;13.162;2023-01-23T01:11:37;46.67;;;23.08;;
49834;SDS011;35729;52.090;13.162;2023-01-23T01:14:06;43.22;;;22.70;;
49834;SDS011;35729;52.090;13.162;2023-01-23T01:16:34;43.63;;;23.17;;
49834;SDS011;35729;52.090;13.162;2023-01-23T01:21:38;47.22;;;22.88;;
49834;SDS011;35729;52.090;13.162;2023-01-23T01:24:09;43.22;;;23.13;;
49834;SDS011;35729;52.090;13.162;2023-01-23T01:26:37;42.00;;;22.10;;
49834;SDS011;35729;52.090;13.162;2023-01-23T01:29:06;42.13;;;22.67;;
49834;SDS011;35729;52.090;13.162;2023-01-23T01:31:35;44.00;;;23.20;;
49834;SDS011;35729;52.090;13.162;2023-01-23T01:34:03;43.72;;;22.92;;
49834;SDS011;35729;52.090;13.162;2023-01-23T01:36:32;43.05;;;21.95;;
49834;SDS011;35729;52.090;13.162;2023-01-23T01:39:03;45.60;;;23.15;;
49834;SDS011;35729;52.090;13.162;2023-01-23T01:41:32;45.60;;;24.33;;
49834;SDS011;35729;52.090;13.162;2023-01-23T01:44:00;48.88;;;23.85;;
49834;SDS011;35729;52.090;13.162;2023-01-23T01:46:29;43.05;;;22.23;;
49834;SDS011;35729;52.090;13.162;2023-01-23T01:49:02;46.60;;;23.90;;
49834;SDS011;35729;52.090;13.162;2023-01-23T01:51:36;46.85;;;23.38;;
49834;SDS011;35729;52.090;13.162;2023-01-23T01:54:13;44.22;;;24.23;;
49834;SDS011;35729;52.090;13.162;2023-01-23T01:56:48;42.17;;;23.17;;
49834;SDS011;35729;52.090;13.162;2023-01-23T01:59:19;40.70;;;21.90;;
49834;SDS011;35729;52.090;13.162;2023-01-23T02:01:55;48.90;;;23.65;;
49834;SDS011;35729;52.090;13.162;2023-01-23T02:04:30;43.28;;;21.98;;
49834;SDS011;35729;52.090;13.162;2023-01-23T02:07:00;48.38;;;23.60;;
49834;SDS011;35729;52.090;13.162;2023-01-23T02:09:37;45.92;;;23.33;;
49834;SDS011;35729;52.090;13.162;2023-01-23T02:12:06;48.92;;;23.52;;
49834;SDS011;35729;52.090;13.162;2023-01-23T02:14:35;42.45;;;22.50;;
49834;SDS011;35729;52.090;13.162;2023-01-23T02:17:04;47.80;;;23.98;;
49834;SDS011;35729;52.090;13.162;2023-01-23T02:19:36;45.78;;;23.17;;
49834;SDS011;35729;52.090;13.162;2023-01-23T02:22:18;46.95;;;24.33;;
49834;SDS011;35729;52.090;13.162;2023-01-23T02:24:57;48.72;;;23.40;;
49834;SDS011;35729;52.090;13.162;2023-01-23T02:27:33;50.85;;;24.73;;
49834;SDS011;35729;52.090;13.162;2023-01-23T02:30:02;48.10;;;23.85;;
49834;SDS011;35729;52.090;13.162;2023-01-23T02:32:32;49.08;;;24.67;;
49834;SDS011;35729;52.090;13.162;2023-01-23T02:35:06;46.75;;;25.67;;
49834;SDS011;35729;52.090;13.162;2023-01-23T02:37:39;48.55;;;23.90;;
49834;SDS011;35729;52.090;13.162;2023-01-23T02:40:10;47.63;;;23.52;;
49834;SDS011;35729;52.090;13.162;2023-01-23T02:42:43;46.13;;;23.92;;
49834;SDS011;35729;52.090;13.162;2023-01-23T02:45:14;51.50;;;24.50;;
49834;SDS011;35729;52.090;13.162;2023-01-23T02:47:43;50.33;;;25.05;;
49834;SDS011;35729;52.090;13.162;2023-01-23T02:50:11;48.53;;;24.83;;
49834;SDS011;35729;52.090;13.162;2023-01-23T02:52:40;52.17;;;24.75;;
49834;SDS011;35729;52.090;13.162;2023-01-23T02:55:09;55.20;;;25.40;;
49834;SDS011;35729;52.090;13.162;2023-01-23T02:57:38;52.03;;;25.40;;
49834;SDS011;35729;52.090;13.162;2023-01-23T03:00:10;51.60;;;25.58;;
49834;SDS011;35729;52.090;13.162;2023-01-23T03:02:44;56.60;;;26.10;;
49834;SDS011;35729;52.090;13.162;2023-01-23T03:05:14;52.17;;;25.63;;
49834;SDS011;35729;52.090;13.162;2023-01-23T03:07:43;55.80;;;25.33;;
49834;SDS011;35729;52.090;13.162;2023-01-23T03:10:11;55.58;;;26.60;;
49834;SDS011;35729;52.090;13.162;2023-01-23T03:12:40;55.20;;;26.55;;
49834;SDS011;35729;52.090;13.162;2023-01-23T03:15:12;55.25;;;25.85;;
49834;SDS011;35729;52.090;13.162;2023-01-23T03:17:40;55.67;;;26.10;;
49834;SDS011;35729;52.090;13.162;2023-01-23T03:20:16;57.45;;;26.83;;
49834;SDS011;35729;52.090;13.162;2023-01-23T03:22:47;59.67;;;24.73;;
49834;SDS011;35729;52.090;13.162;2023-01-23T03:25:15;54.47;;;25.75;;
49834;SDS011;35729;52.090;13.162;2023-01-23T03:27:44;60.25;;;27.65;;
49834;SDS011;35729;52.090;13.162;2023-01-23T03:30:15;56.22;;;25.90;;
49834;SDS011;35729;52.090;13.162;2023-01-23T03:32:44;65.00;;;27.73;;
49834;SDS011;35729;52.090;13.162;2023-01-23T03:35:14;54.65;;;25.33;;
49834;SDS011;35729;52.090;13.162;2023-01-23T03:37:44;59.25;;;27.67;;
49834;SDS011;35729;52.090;13.162;2023-01-23T03:40:14;56.63;;;26.63;;
49834;SDS011;35729;52.090;13.162;2023-01-23T03:42:56;61.92;;;26.48;;
49834;SDS011;35729;52.090;13.162;2023-01-23T03:45:27;57.70;;;27.73;;
49834;SDS011;35729;52.090;13.162;2023-01-23T03:47:56;63.75;;;28.27;;
49834;SDS011;35729;52.090;13.162;2023-01-23T03:50:24;60.90;;;25.65;;
49834;SDS011;35729;52.090;13.162;2023-01-23T03:52:53;61.65;;;27.30;;
49834;SDS011;35729;52.090;13.162;2023-01-23T03:55:21;59.38;;;28.58;;
49834;SDS011;35729;52.090;13.162;2023-01-23T03:57:50;58.80;;;27.15;;
49834;SDS011;35729;52.090;13.162;2023-01-23T04:00:19;62.92;;;26.80;;
49834;SDS011;35729;52.090;13.162;2023-01-23T04:02:50;73.00;;;30.80;;
49834;SDS011;35729;52.090;13.162;2023-01-23T04:05:19;66.63;;;27.08;;
49834;SDS011;35729;52.090;13.162;2023-01-23T04:07:47;67.03;;;28.10;;
49834;SDS011;35729;52.090;13.162;2023-01-23T04:10:16;61.58;;;28.35;;
49834;SDS011;35729;52.090;13.162;2023-01-23T04:12:44;61.90;;;29.60;;
49834;SDS011;35729;52.090;13.162;2023-01-23T04:15:13;62.90;;;26.92;;
49834;SDS011;35729;52.090;13.162;2023-01-23T04:17:42;66.57;;;28.83;;
49834;SDS011;35729;52.090;13.162;2023-01-23T04:20:13;62.88;;;28.83;;
49834;SDS011;35729;52.090;13.162;2023-01-23T04:22:42;65.05;;;27.58;;
49834;SDS011;35729;52.090;13.162;2023-01-23T04:25:10;66.78;;;27.48;;
49834;SDS011;35729;52.090;13.162;2023-01-23T04:27:39;65.13;;;29.38;;
49834;SDS011;35729;52.090;13.162;2023-01-23T04:30:08;73.35;;;30.88;;
49834;SDS011;35729;52.090;13.162;2023-01-23T04:32:37;67.30;;;28.23;;
49834;SDS011;35729;52.090;13.162;2023-01-23T04:35:06;66.88;;;29.48;;
49834;SDS011;35729;52.090;13.162;2023-01-23T04:37:37;69.38;;;30.95;;
49834;SDS011;35729;52.090;13.162;2023-01-23T04:40:06;69.00;;;29.33;;
49834;SDS011;35729;52.090;13.162;2023-01-23T04:42:36;70.68;;;30.13;;
49834;SDS011;35729;52.090;13.162;2023-01-23T04:45:06;72.38;;;29.00;;
49834;SDS011;35729;52.090;13.162;2023-01-23T04:47:35;71.97;;;29.40;;
49834;SDS011;35729;52.090;13.162;2023-01-23T04:50:04;71.00;;;30.10;;
49834;SDS011;35729;52.090;13.162;2023-01-23T04:52:33;74.93;;;30.27;;
49834;SDS011;35729;52.090;13.162;2023-01-23T04:55:05;70.25;;;29.08;;
49834;SDS011;35729;52.090;13.162;2023-01-23T04:57:34;74.15;;;31.65;;
49834;SDS011;35729;52.090;13.162;2023-01-23T05:00:03;70.18;;;28.40;;
49834;SDS011;35729;52.090;13.162;2023-01-23T05:02:32;69.20;;;28.67;;
49834;SDS011;35729;52.090;13.162;2023-01-23T05:05:01;70.75;;;29.25;;
49834;SDS011;35729;52.090;13.162;2023-01-23T05:07:30;73.53;;;29.88;;
49834;SDS011;35729;52.090;13.162;2023-01-23T05:09:58;71.10;;;28.33;;
49834;SDS011;35729;52.090;13.162;2023-01-23T05:12:30;69.43;;;27.00;;
49834;SDS011;35729;52.090;13.162;2023-01-23T05:14:58;78.60;;;29.02;;
49834;SDS011;35729;52.090;13.162;2023-01-23T05:17:27;81.45;;;30.55;;
49834;SDS011;35729;52.090;13.162;2023-01-23T05:19:55;75.65;;;28.90;;
49834;SDS011;35729;52.090;13.162;2023-01-23T05:22:24;82.65;;;30.42;;
49834;SDS011;35729;52.090;13.162;2023-01-23T05:24:52;75.97;;;29.77;;
49834;SDS011;35729;52.090;13.162;2023-01-23T05:27:20;76.10;;;29.13;;
49834;SDS011;35729;52.090;13.162;2023-01-23T05:29:51;77.68;;;29.45;;
49834;SDS011;35729;52.090;13.162;2023-01-23T05:32:20;71.47;;;28.92;;
49834;SDS011;35729;52.090;13.162;2023-01-23T05:34:48;79.03;;;29.88;;
49834;SDS011;35729;52.090;13.162;2023-01-23T05:37:17;73.78;;;29.60;;
49834;SDS011;35729;52.090;13.162;2023-01-23T05:39:55;75.93;;;28.90;;
49834;SDS011;35729;52.090;13.162;2023-01-23T05:42:24;80.47;;;29.88;;
49834;SDS011;35729;52.090;13.162;2023-01-23T05:44:55;77.50;;;29.77;;
49834;SDS011;35729;52.090;13.162;2023-01-23T05:47:23;80.80;;;29.40;;
49834;SDS011;35729;52.090;13.162;2023-01-23T05:49:52;82.85;;;29.70;;
49834;SDS011;35729;52.090;13.162;2023-01-23T05:52:20;111.20;;;43.38;;
49834;SDS011;35729;52.090;13.162;2023-01-23T05:54:49;87.25;;;34.85;;
49834;SDS011;35729;52.090;13.162;2023-01-23T05:57:17;85.53;;;31.25;;
49834;SDS011;35729;52.090;13.162;2023-01-23T05:59:46;84.95;;;30.52;;
49834;SDS011;35729;52.090;13.162;2023-01-23T06:02:17;79.97;;;31.10;;
49834;SDS011;35729;52.090;13.162;2023-01-23T06:04:46;80.70;;;30.13;;
49834;SDS011;35729;52.090;13.162;2023-01-23T06:07:15;82.10;;;30.02;;
49834;SDS011;35729;52.090;13.162;2023-01-23T06:09:45;77.95;;;30.83;;
49834;SDS011;35729;52.090;13.162;2023-01-23T06:12:14;80.70;;;31.10;;
49834;SDS011;35729;52.090;13.162;2023-01-23T06:14:42;75.75;;;31.23;;
49834;SDS011;35729;52.090;13.162;2023-01-23T06:17:11;81.50;;;30.73;;
49834;SDS011;35729;52.090;13.162;2023-01-23T06:19:42;81.80;;;32.40;;
49834;SDS011;35729;52.090;13.162;2023-01-23T06:22:11;83.05;;;32.78;;
49834;SDS011;35729;52.090;13.162;2023-01-23T06:24:39;87.90;;;30.48;;
49834;SDS011;35729;52.090;13.162;2023-01-23T06:27:07;85.05;;;31.73;;
49834;SDS011;35729;52.090;13.162;2023-01-23T06:29:36;85.35;;;31.33;;
49834;SDS011;35729;52.090;13.162;2023-01-23T06:32:05;87.57;;;33.03;;
49834;SDS011;35729;52.090;13.162;2023-01-23T06:34:34;83.82;;;32.20;;
49834;SDS011;35729;52.090;13.162;2023-01-23T06:37:05;81.13;;;30.88;;
49834;SDS011;35729;52.090;13.162;2023-01-23T06:39:33;90.25;;;33.78;;
49834;SDS011;35729;52.090;13.162;2023-01-23T06:42:02;83.85;;;31.75;;
49834;SDS011;35729;52.090;13.162;2023-01-23T06:44:34;91.85;;;32.45;;
49834;SDS011;35729;52.090;13.162;2023-01-23T06:47:02;84.95;;;32.53;;
49834;SDS011;35729;52.090;13.162;2023-01-23T06:49:31;86.25;;;32.28;;
49834;SDS011;35729;52.090;13.162;2023-01-23T06:51:59;85.38;;;32.30;;
49834;SDS011;35729;52.090;13.162;2023-01-23T06:54:30;91.35;;;31.75;;
49834;SDS011;35729;52.090;13.162;2023-01-23T06:56:59;83.40;;;32.42;;
49834;SDS011;35729;52.090;13.162;2023-01-23T06:59:27;83.45;;;31.80;;
49834;SDS011;35729;52.090;13.162;2023-01-23T07:01:56;83.15;;;32.40;;
49834;SDS011;35729;52.090;13.162;2023-01-23T07:04:24;91.75;;;33.38;;
49834;SDS011;35729;52.090;13.162;2023-01-23T07:06:53;88.63;;;32.35;;
49834;SDS011;35729;52.090;13.162;2023-01-23T07:09:21;83.35;;;33.38;;
49834;SDS011;35729;52.090;13.162;2023-01-23T07:11:52;86.40;;;32.53;;
49834;SDS011;35729;52.090;13.162;2023-01-23T07:14:21;91.70;;;35.47;;
49834;SDS011;35729;52.090;13.162;2023-01-23T07:16:52;91.43;;;34.13;;
49834;SDS011;35729;52.090;13.162;2023-01-23T07:19:20;90.75;;;34.88;;
49834;SDS011;35729;52.090;13.162;2023-01-23T07:21:49;92.40;;;34.08;;
49834;SDS011;35729;52.090;13.162;2023-01-23T07:24:17;85.03;;;32.33;;
49834;SDS011;35729;52.090;13.162;2023-01-23T07:26:46;88.07;;;32.78;;
49834;SDS011;35729;52.090;13.162;2023-01-23T07:29:17;86.10;;;31.17;;
49834;SDS011;35729;52.090;13.162;2023-01-23T07:31:45;85.28;;;32.42;;
49834;SDS011;35729;52.090;13.162;2023-01-23T07:34:13;92.57;;;33.17;;
49834;SDS011;35729;52.090;13.162;2023-01-23T07:36:42;84.90;;;32.70;;
49834;SDS011;35729;52.090;13.162;2023-01-23T07:39:10;89.40;;;34.53;;
49834;SDS011;35729;52.090;13.162;2023-01-23T07:41:40;81.43;;;33.17;;
49834;SDS011;35729;52.090;13.162;2023-01-23T07:44:08;90.88;;;32.90;;
49834;SDS011;35729;52.090;13.162;2023-01-23T07:46:46;89.38;;;34.42;;
49834;SDS011;35729;52.090;13.162;2023-01-23T07:49:15;93.30;;;35.47;;
49834;SDS011;35729;52.090;13.162;2023-01-23T07:51:44;83.40;;;32.75;;
49834;SDS011;35729;52.090;13.162;2023-01-23T07:54:12;80.40;;;32.53;;
49834;SDS011;35729;52.090;13.162;2023-01-23T07:56:41;79.78;;;32.70;;
49834;SDS011;35729;52.090;13.162;2023-01-23T07:59:12;73.68;;;32.03;;
49834;SDS011;35729;52.090;13.162;2023-01-23T08:01:41;73.70;;;31.83;;
49834;SDS011;35729;52.090;13.162;2023-01-23T08:04:13;74.30;;;31.80;;
49834;SDS011;35729;52.090;13.162;2023-01-23T08:06:41;76.60;;;31.05;;
49834;SDS011;35729;52.090;13.162;2023-01-23T08:09:10;68.70;;;30.58;;
49834;SDS011;35729;52.090;13.162;2023-01-23T08:11:39;66.22;;;30.35;;
49834;SDS011;35729;52.090;13.162;2023-01-23T08:14:07;73.53;;;31.92;;
49834;SDS011;35729;52.090;13.162;2023-01-23T08:16:36;73.75;;;30.63;;
49834;SDS011;35729;52.090;13.162;2023-01-23T08:19:05;66.15;;;29.63;;
49834;SDS011;35729;52.090;13.162;2023-01-23T08:21:36;69.05;;;31.30;;
49834;SDS011;35729;52.090;13.162;2023-01-23T08:24:05;66.07;;;31.08;;
49834;SDS011;35729;52.090;13.162;2023-01-23T08:26:34;59.92;;;29.42;;
49834;SDS011;35729;52.090;13.162;2023-01-23T08:29:03;60.05;;;27.65;;
49834;SDS011;35729;52.090;13.162;2023-01-23T08:31:31;58.90;;;27.65;;
49834;SDS011;35729;52.090;13.162;2023-01-23T08:34:00;61.65;;;30.13;;
49834;SDS011;35729;52.090;13.162;2023-01-23T08:36:28;59.63;;;28.30;;
49834;SDS011;35729;52.090;13.162;2023-01-23T08:38:59;54.83;;;28.38;;
49834;SDS011;35729;52.090;13.162;2023-01-23T08:41:28;52.50;;;27.13;;
49834;SDS011;35729;52.090;13.162;2023-01-23T08:43:56;54.45;;;28.55;;
49834;SDS011;35729;52.090;13.162;2023-01-23T08:46:26;59.63;;;29.77;;
49834;SDS011;35729;52.090;13.162;2023-01-23T08:48:54;55.17;;;28.00;;
49834;SDS011;35729;52.090;13.162;2023-01-23T08:51:23;58.15;;;29.60;;
49834;SDS011;35729;52.090;13.162;2023-01-23T08:53:52;57.20;;;28.88;;
49834;SDS011;35729;52.090;13.162;2023-01-23T08:56:24;59.28;;;27.50;;
49834;SDS011;35729;52.090;13.162;2023-01-23T08:58:52;56.42;;;28.70;;
49834;SDS011;35729;52.090;13.162;2023-01-23T09:01:21;59.90;;;29.42;;
49834;SDS011;35729;52.090;13.162;2023-01-23T09:03:58;55.72;;;28.85;;
49834;SDS011;35729;52.090;13.162;2023-01-23T09:06:26;55.35;;;27.98;;
49834;SDS011;35729;52.090;13.162;2023-01-23T09:08:55;57.53;;;29.42;;
49834;SDS011;35729;52.090;13.162;2023-01-23T09:11:26;55.90;;;27.42;;
49834;SDS011;35729;52.090;13.162;2023-01-23T09:13:54;53.83;;;28.80;;
49834;SDS011;35729;52.090;13.162;2023-01-23T09:16:23;51.72;;;29.13;;
49834;SDS011;35729;52.090;13.162;2023-01-23T09:18:53;55.33;;;29.02;;
49834;SDS011;35729;52.090;13.162;2023-01-23T09:21:22;56.65;;;28.83;;
49834;SDS011;35729;52.090;13.162;2023-01-23T09:23:50;52.67;;;29.15;;
49834;SDS011;35729;52.090;13.162;2023-01-23T09:26:18;51.45;;;27.70;;
49834;SDS011;35729;52.090;13.162;2023-01-23T09:28:49;52.13;;;27.55;;
49834;SDS011;35729;52.090;13.162;2023-01-23T09:31:18;53.10;;;27.88;;
49834;SDS011;35729;52.090;13.162;2023-01-23T09:33:46;50.08;;;28.63;;
49834;SDS011;35729;52.090;13.162;2023-01-23T09:36:15;53.05;;;29.48;;
49834;SDS011;35729;52.090;13.162;2023-01-23T09:38:46;53.35;;;28.25;;
49834;SDS011;35729;52.090;13.162;2023-01-23T09:41:16;51.88;;;28.45;;
49834;SDS011;35729;52.090;13.162;2023-01-23T09:43:50;52.97;;;29.02;;
49834;SDS011;35729;52.090;13.162;2023-01-23T09:46:24;53.47;;;28.23;;
49834;SDS011;35729;52.090;13.162;2023-01-23T09:49:01;52.28;;;29.30;;
49834;SDS011;35729;52.090;13.162;2023-01-23T09:51:39;51.80;;;27.60;;
49834;SDS011;35729;52.090;13.162;2023-01-23T09:54:16;52.60;;;28.73;;
49834;SDS011;35729;52.090;13.162;2023-01-23T09:56:56;49.20;;;28.63;;
49834;SDS011;35729;52.090;13.162;2023-01-23T09:59:32;50.63;;;28.50;;
49834;SDS011;35729;52.090;13.162;2023-01-23T10:02:08;50.10;;;27.10;;
49834;SDS011;35729;52.090;13.162;2023-01-23T10:04:44;50.95;;;28.65;;
49834;SDS011;35729;52.090;13.162;2023-01-23T10:07:26;57.25;;;29.02;;
49834;SDS011;35729;52.090;13.162;2023-01-23T10:10:16;53.05;;;28.48;;
49834;SDS011;35729;52.090;13.162;2023-01-23T10:13:06;52.25;;;28.50;;
49834;SDS011;35729;52.090;13.162;2023-01-23T10:15:56;50.55;;;26.65;;
49834;SDS011;35729;52.090;13.162;2023-01-23T10:18:35;52.28;;;28.33;;
49834;SDS011;35729;52.090;13.162;2023-01-23T10:21:14;52.05;;;26.77;;
49834;SDS011;35729;52.090;13.162;2023-01-23T10:23:55;51.28;;;27.08;;
49834;SDS011;35729;52.090;13.162;2023-01-23T10:26:31;51.08;;;28.42;;
49834;SDS011;35729;52.090;13.162;2023-01-23T10:29:09;48.92;;;26.25;;
49834;SDS011;35729;52.090;13.162;2023-01-23T10:31:45;52.75;;;27.90;;
49834;SDS011;35729;52.090;13.162;2023-01-23T10:34:18;54.35;;;29.60;;
49834;SDS011;35729;52.090;13.162;2023-01-23T10:37:01;51.03;;;27.27;;
49834;SDS011;35729;52.090;13.162;2023-01-23T10:39:40;54.65;;;27.73;;
49834;SDS011;35729;52.090;13.162;2023-01-23T10:42:14;49.40;;;27.83;;
49834;SDS011;35729;52.090;13.162;2023-01-23T10:44:47;48.05;;;25.40;;
49834;SDS011;35729;52.090;13.162;2023-01-23T10:47:20;48.55;;;27.13;;
49834;SDS011;35729;52.090;13.162;2023-01-23T10:49:55;46.22;;;26.73;;
49834;SDS011;35729;52.090;13.162;2023-01-23T10:52:33;48.95;;;28.17;;
49834;SDS011;35729;52.090;13.162;2023-01-23T10:55:04;50.88;;;26.98;;
49834;SDS011;35729;52.090;13.162;2023-01-23T10:57:52;49.50;;;27.52;;
49834;SDS011;35729;52.090;13.162;2023-01-23T11:00:23;48.30;;;26.48;;
49834;SDS011;35729;52.090;13.162;2023-01-23T11:02:59;47.88;;;26.05;;
49834;SDS011;35729;52.090;13.162;2023-01-23T11:05:51;48.00;;;26.65;;
49834;SDS011;35729;52.090;13.162;2023-01-23T11:08:22;50.20;;;26.33;;
49834;SDS011;35729;52.090;13.162;2023-01-23T11:10:53;41.97;;;23.83;;
49834;SDS011;35729;52.090;13.162;2023-01-23T11:13:38;45.42;;;25.17;;
49834;SDS011;35729;52.090;13.162;2023-01-23T11:16:07;47.35;;;25.65;;
49834;SDS011;35729;52.090;13.162;2023-01-23T11:18:48;46.95;;;26.27;;
49834;SDS011;35729;52.090;13.162;2023-01-23T11:21:21;45.55;;;25.23;;
49834;SDS011;35729;52.090;13.162;2023-01-23T11:23:55;45.03;;;24.05;;
49834;SDS011;35729;52.090;13.162;2023-01-23T11:26:36;43.25;;;23.13;;
49834;SDS011;35729;52.090;13.162;2023-01-23T11:31:49;45.40;;;25.63;;
49834;SDS011;35729;52.090;13.162;2023-01-23T11:34:26;44.65;;;25.15;;
49834;SDS011;35729;52.090;13.162;2023-01-23T11:37:02;47.45;;;24.50;;
49834;SDS011;35729;52.090;13.162;2023-01-23T11:39:43;42.97;;;24.05;;
49834;SDS011;35729;52.090;13.162;2023-01-23T11:42:17;41.70;;;23.08;;
49834;SDS011;35729;52.090;13.162;2023-01-23T11:44:46;37.85;;;22.77;;
49834;SDS011;35729;52.090;13.162;2023-01-23T11:47:28;43.40;;;24.27;;
49834;SDS011;35729;52.090;13.162;2023-01-23T11:50:19;41.47;;;24.20;;
49834;SDS011;35729;52.090;13.162;2023-01-23T11:52:58;47.72;;;26.20;;
49834;SDS011;35729;52.090;13.162;2023-01-23T11:55:39;60.67;;;30.70;;
49834;SDS011;35729;52.090;13.162;2023-01-23T12:01:33;58.00;;;30.92;;
49834;SDS011;35729;52.090;13.162;2023-01-23T12:04:18;57.90;;;30.42;;
49834;SDS011;35729;52.090;13.162;2023-01-23T12:07:08;56.08;;;28.27;;
49834;SDS011;35729;52.090;13.162;2023-01-23T12:09:55;53.63;;;28.00;;
49834;SDS011;35729;52.090;13.162;2023-01-23T12:12:39;57.60;;;29.40;;
49834;SDS011;35729;52.090;13.162;2023-01-23T12:15:22;59.72;;;28.83;;
49834;SDS011;35729;52.090;13.162;2023-01-23T12:18:05;57.88;;;28.63;;
49834;SDS011;35729;52.090;13.162;2023-01-23T12:20:42;56.38;;;28.38;;
49834;SDS011;35729;52.090;13.162;2023-01-23T12:26:20;46.80;;;25.25;;
49834;SDS011;35729;52.090;13.162;2023-01-23T12:31:55;46.55;;;24.77;;
49834;SDS011;35729;52.090;13.162;2023-01-23T12:34:40;45.75;;;24.33;;
49834;SDS011;35729;52.090;13.162;2023-01-23T12:37:23;63.75;;;35.75;;
49834;SDS011;35729;52.090;13.162;2023-01-23T12:40:08;44.78;;;25.05;;
49834;SDS011;35729;52.090;13.162;2023-01-23T12:42:41;43.22;;;24.55;;
49834;SDS011;35729;52.090;13.162;2023-01-23T12:45:16;43.38;;;22.92;;
49834;SDS011;35729;52.090;13.162;2023-01-23T12:47:50;41.67;;;22.90;;
49834;SDS011;35729;52.090;13.162;2023-01-23T12:50:27;41.60;;;23.75;;
49834;SDS011;35729;52.090;13.162;2023-01-23T12:53:03;38.50;;;23.65;;
49834;SDS011;35729;52.090;13.162;2023-01-23T12:55:40;41.67;;;22.90;;
49834;SDS011;35729;52.090;13.162;2023-01-23T12:58:14;41.22;;;24.25;;
49834;SDS011;35729;52.090;13.162;2023-01-23T13:00:48;40.17;;;23.40;;
49834;SDS011;35729;52.090;13.162;2023-01-23T13:03:34;44.25;;;25.05;;
49834;SDS011;35729;52.090;13.162;2023-01-23T13:06:22;39.60;;;24.02;;
49834;SDS011;35729;52.090;13.162;2023-01-23T13:08:56;43.83;;;24.83;;
49834;SDS011;35729;52.090;13.162;2023-01-23T13:11:34;46.22;;;26.02;;
49834;SDS011;35729;52.090;13.162;2023-01-23T13:14:16;38.25;;;21.90;;
49834;SDS011;35729;52.090;13.162;2023-01-23T13:16:49;40.67;;;24.08;;
49834;SDS011;35729;52.090;13.162;2023-01-23T13:19:22;43.20;;;24.65;;
49834;SDS011;35729;52.090;13.162;2023-01-23T13:22:10;35.90;;;22.15;;
49834;SDS011;35729;52.090;13.162;2023-01-23T13:24:43;37.95;;;24.05;;
49834;SDS011;35729;52.090;13.162;2023-01-23T13:27:49;35.95;;;21.33;;
49834;SDS011;35729;52.090;13.162;2023-01-23T13:36:25;37.05;;;22.17;;
49834;SDS011;35729;52.090;13.162;2023-01-23T13:38:59;35.83;;;21.23;;
49834;SDS011;35729;52.090;13.162;2023-01-23T13:41:32;33.53;;;21.05;;
49834;SDS011;35729;52.090;13.162;2023-01-23T13:44:10;34.63;;;22.15;;
49834;SDS011;35729;52.090;13.162;2023-01-23T13:46:48;34.35;;;21.77;;
49834;SDS011;35729;52.090;13.162;2023-01-23T13:49:29;33.70;;;21.30;;
49834;SDS011;35729;52.090;13.162;2023-01-23T13:52:20;39.35;;;24.30;;
49834;SDS011;35729;52.090;13.162;2023-01-23T13:55:11;39.50;;;23.13;;
49834;SDS011;35729;52.090;13.162;2023-01-23T13:57:55;36.08;;;22.65;;
49834;SDS011;35729;52.090;13.162;2023-01-23T14:00:26;37.17;;;23.27;;
49834;SDS011;35729;52.090;13.162;2023-01-23T14:02:57;43.40;;;25.00;;
49834;SDS011;35729;52.090;13.162;2023-01-23T14:05:54;37.33;;;23.92;;
49834;SDS011;35729;52.090;13.162;2023-01-23T14:08:30;39.70;;;22.80;;
49834;SDS011;35729;52.090;13.162;2023-01-23T14:10:59;39.80;;;23.80;;
49834;SDS011;35729;52.090;13.162;2023-01-23T14:13:28;38.10;;;23.38;;
49834;SDS011;35729;52.090;13.162;2023-01-23T14:16:00;38.40;;;23.48;;
49834;SDS011;35729;52.090;13.162;2023-01-23T14:18:43;40.53;;;25.10;;
49834;SDS011;35729;52.090;13.162;2023-01-23T14:21:16;35.95;;;23.17;;
49834;SDS011;35729;52.090;13.162;2023-01-23T14:23:49;37.08;;;23.95;;
49834;SDS011;35729;52.090;13.162;2023-01-23T14:26:20;33.90;;;22.23;;
49834;SDS011;35729;52.090;13.162;2023-01-23T14:28:53;36.38;;;23.00;;
49834;SDS011;35729;52.090;13.162;2023-01-23T14:31:26;33.88;;;22.35;;
49834;SDS011;35729;52.090;13.162;2023-01-23T14:33:59;39.17;;;23.47;;
49834;SDS011;35729;52.090;13.162;2023-01-23T14:36:31;36.88;;;23.52;;
49834;SDS011;35729;52.090;13.162;2023-01-23T14:39:02;36.13;;;22.27;;
49834;SDS011;35729;52.090;13.162;2023-01-23T14:41:33;38.25;;;24.42;;
49834;SDS011;35729;52.090;13.162;2023-01-23T14:44:06;37.50;;;24.42;;
49834;SDS011;35729;52.090;13.162;2023-01-23T14:46:46;39.75;;;24.83;;
49834;SDS011;35729;52.090;13.162;2023-01-23T14:49:22;36.28;;;22.58;;
49834;SDS011;35729;52.090;13.162;2023-01-23T14:51:54;37.67;;;23.25;;
49834;SDS011;35729;52.090;13.162;2023-01-23T14:54:24;38.60;;;23.45;;
49834;SDS011;35729;52.090;13.162;2023-01-23T14:56:53;41.30;;;25.95;;
49834;SDS011;35729;52.090;13.162;2023-01-23T14:59:24;37.20;;;23.33;;